sensor_id;sensor_type;location;lat;lon;timestamp;pressure;altitude;pressure_sealevel;temperature;humidity
30463;BME280;17256;43.618;25.336;2023-05-11T00:48:38;100747.81;;;7.23;100.00
30463;BME280;17256;43.618;25.336;2023-05-11T01:49:43;100914.78;;;7.36;100.00
30463;BME280;17256;43.618;25.336;2023-05-11T02:01:12;100984.78;;;7.86;100.00
30463;BME280;17256;43.618;25.336;2023-05-11T03:01:07;101142.59;;;8.35;100.00
30463;BME280;17256;43.618;25.336;2023-05-11T04:03:51;100828.28;;;8.54;100.00
30463;BME280;17256;43.618;25.336;2023-05-11T04:06:32;101069.06;;;10.03;100.00
30463;BME280;17256;43.618;25.336;2023-05-11T04:32:18;101108.50;;;10.47;100.00
30463;BME280;17256;43.618;25.336;2023-05-11T04:35:39;100988.81;;;10.24;100.00
30463;BME280;17256;43.618;25.336;2023-05-11T04:38:21;100784.09;;;9.03;100.00
30463;BME280;17256;43.618;25.336;2023-05-11T04:41:17;100798.63;;;9.27;100.00
30463;BME280;17256;43.618;25.336;2023-05-11T04:52:38;101187.94;;;12.75;100.00
30463;BME280;17256;43.618;25.336;2023-05-11T04:56:10;101089.34;;;12.43;95.93
30463;BME280;17256;43.618;25.336;2023-05-11T04:58:37;101038.09;;;12.20;94.70
30463;BME280;17256;43.618;25.336;2023-05-11T05:01:17;100804.69;;;10.83;92.93
30463;BME280;17256;43.618;25.336;2023-05-11T05:03:52;100982.91;;;12.07;91.00
30463;BME280;17256;43.618;25.336;2023-05-11T05:06:20;101223.56;;;13.61;89.02
30463;BME280;17256;43.618;25.336;2023-05-11T05:08:56;101138.94;;;13.33;87.87
30463;BME280;17256;43.618;25.336;2023-05-11T05:26:57;100813.78;;;12.16;76.47
30463;BME280;17256;43.618;25.336;2023-05-11T05:29:25;100746.00;;;11.74;75.67
30463;BME280;17256;43.618;25.336;2023-05-11T05:43:51;100970.72;;;13.60;70.12
30463;BME280;17256;43.618;25.336;2023-05-11T05:46:17;100876.88;;;13.33;69.71
30463;BME280;17256;43.618;25.336;2023-05-11T05:48:53;101232.63;;;15.43;68.89
30463;BME280;17256;43.618;25.336;2023-05-11T05:51:20;100778.63;;;12.92;68.21
30463;BME280;17256;43.618;25.336;2023-05-11T05:53:55;100989.22;;;14.19;67.97
30463;BME280;17256;43.618;25.336;2023-05-11T05:56:21;100936.53;;;13.87;67.93
30463;BME280;17256;43.618;25.336;2023-05-11T05:58:47;100979.00;;;14.26;63.72
30463;BME280;17256;43.618;25.336;2023-05-11T06:08:13;101150.41;;;16.01;61.10
30463;BME280;17256;43.618;25.336;2023-05-11T06:10:51;101021.66;;;15.34;62.20
30463;BME280;17256;43.618;25.336;2023-05-11T06:13:18;100856.38;;;14.33;62.03
30463;BME280;17256;43.618;25.336;2023-05-11T06:15:43;100997.09;;;15.13;61.93
30463;BME280;17256;43.618;25.336;2023-05-11T06:18:34;100999.97;;;15.37;62.13
30463;BME280;17256;43.618;25.336;2023-05-11T06:21:01;101179.03;;;16.58;59.03
30463;BME280;17256;43.618;25.336;2023-05-11T06:23:29;100905.34;;;14.77;57.45
30463;BME280;17256;43.618;25.336;2023-05-11T06:25:57;101067.19;;;15.89;56.40
30463;BME280;17256;43.618;25.336;2023-05-11T06:28:26;100995.19;;;15.51;55.30
30463;BME280;17256;43.618;25.336;2023-05-11T06:30:59;101046.97;;;15.82;55.13
30463;BME280;17256;43.618;25.336;2023-05-11T06:33:38;101183.06;;;16.62;54.91
30463;BME280;17256;43.618;25.336;2023-05-11T06:36:21;100927.50;;;15.09;54.41
30463;BME280;17256;43.618;25.336;2023-05-11T06:42:41;100941.91;;;15.24;53.97
30463;BME280;17256;43.618;25.336;2023-05-11T06:45:44;100784.91;;;14.50;55.43
30463;BME280;17256;43.618;25.336;2023-05-11T06:48:12;100988.31;;;15.67;54.42
30463;BME280;17256;43.618;25.336;2023-05-11T06:50:40;100968.56;;;15.88;54.44
30463;BME280;17256;43.618;25.336;2023-05-11T06:53:12;101231.38;;;17.29;53.80
30463;BME280;17256;43.618;25.336;2023-05-11T06:55:43;101001.94;;;15.68;53.09
30463;BME280;17256;43.618;25.336;2023-05-11T06:58:09;100930.22;;;15.54;52.71
30463;BME280;17256;43.618;25.336;2023-05-11T07:00:35;101124.72;;;16.50;52.56
30463;BME280;17256;43.618;25.336;2023-05-11T07:03:01;101052.31;;;16.58;52.65
30463;BME280;17256;43.618;25.336;2023-05-11T07:05:27;100852.22;;;15.88;52.33
30463;BME280;17256;43.618;25.336;2023-05-11T07:07:53;101002.09;;;16.91;51.97
30463;BME280;17256;43.618;25.336;2023-05-11T07:10:20;101045.94;;;17.01;51.42
30463;BME280;17256;43.618;25.336;2023-05-11T07:12:46;100924.31;;;16.00;50.30
30463;BME280;17256;43.618;25.336;2023-05-11T07:15:12;101010.81;;;16.52;50.65
30463;BME280;17256;43.618;25.336;2023-05-11T07:17:39;100795.56;;;15.16;51.96
30463;BME280;17256;43.618;25.336;2023-05-11T07:20:05;100886.72;;;15.67;50.93
30463;BME280;17256;43.618;25.336;2023-05-11T07:22:32;100875.66;;;15.86;50.74
30463;BME280;17256;43.618;25.336;2023-05-11T07:28:24;101134.97;;;17.91;49.19
30463;BME280;17256;43.618;25.336;2023-05-11T07:31:20;101080.63;;;17.29;48.82
30463;BME280;17256;43.618;25.336;2023-05-11T07:34:11;101242.91;;;18.24;48.69
30463;BME280;17256;43.618;25.336;2023-05-11T07:36:43;101157.22;;;17.73;48.12
30463;BME280;17256;43.618;25.336;2023-05-11T07:39:17;100882.59;;;16.38;48.00
30463;BME280;17256;43.618;25.336;2023-05-11T07:41:45;101040.19;;;17.51;46.58
30463;BME280;17256;43.618;25.336;2023-05-11T07:47:45;100826.56;;;16.36;45.77
30463;BME280;17256;43.618;25.336;2023-05-11T07:54:11;101220.88;;;18.71;47.40
30463;BME280;17256;43.618;25.336;2023-05-11T08:01:07;101002.81;;;17.65;46.86
30463;BME280;17256;43.618;25.336;2023-05-11T08:04:58;101228.38;;;18.70;45.10
30463;BME280;17256;43.618;25.336;2023-05-11T08:08:13;100946.88;;;17.20;45.22
30463;BME280;17256;43.618;25.336;2023-05-11T08:11:43;101220.69;;;19.31;47.20
30463;BME280;17256;43.618;25.336;2023-05-11T08:19:24;101219.00;;;19.30;47.51
30463;BME280;17256;43.618;25.336;2023-05-11T08:22:07;101042.88;;;18.29;44.25
30463;BME280;17256;43.618;25.336;2023-05-11T08:24:33;100907.22;;;17.73;46.34
30463;BME280;17256;43.618;25.336;2023-05-11T08:26:59;101054.25;;;18.39;45.08
30463;BME280;17256;43.618;25.336;2023-05-11T08:29:24;101020.03;;;18.51;44.46
30463;BME280;17256;43.618;25.336;2023-05-11T08:31:54;101023.34;;;18.71;42.18
30463;BME280;17256;43.618;25.336;2023-05-11T08:34:20;101075.78;;;19.26;41.65
30463;BME280;17256;43.618;25.336;2023-05-11T08:36:47;101095.22;;;19.49;42.68
30463;BME280;17256;43.618;25.336;2023-05-11T08:39:13;101090.41;;;19.85;42.39
30463;BME280;17256;43.618;25.336;2023-05-11T08:41:47;101028.59;;;19.08;43.00
30463;BME280;17256;43.618;25.336;2023-05-11T09:01:39;101198.06;;;19.39;41.77
30463;BME280;17256;43.618;25.336;2023-05-11T09:04:07;100887.88;;;17.66;41.71
30463;BME280;17256;43.618;25.336;2023-05-11T09:06:33;100968.31;;;18.38;43.03
30463;BME280;17256;43.618;25.336;2023-05-11T09:08:59;100934.31;;;18.48;43.29
30463;BME280;17256;43.618;25.336;2023-05-11T09:11:27;101048.81;;;19.15;41.67
30463;BME280;17256;43.618;25.336;2023-05-11T09:13:54;100834.28;;;17.77;42.27
30463;BME280;17256;43.618;25.336;2023-05-11T09:16:20;100960.31;;;18.41;42.93
30463;BME280;17256;43.618;25.336;2023-05-11T09:18:50;100961.16;;;18.77;42.97
30463;BME280;17256;43.618;25.336;2023-05-11T09:21:17;100930.56;;;18.65;41.66
30463;BME280;17256;43.618;25.336;2023-05-11T09:23:44;100880.06;;;18.22;42.72
30463;BME280;17256;43.618;25.336;2023-05-11T09:26:20;101111.63;;;19.86;42.49
30463;BME280;17256;43.618;25.336;2023-05-11T09:28:54;101182.53;;;20.47;41.93
30463;BME280;17256;43.618;25.336;2023-05-11T09:31:39;101193.94;;;20.17;43.12
30463;BME280;17256;43.618;25.336;2023-05-11T09:34:19;100796.00;;;17.91;41.56
30463;BME280;17256;43.618;25.336;2023-05-11T09:36:51;101121.72;;;20.04;41.49
30463;BME280;17256;43.618;25.336;2023-05-11T09:42:43;101073.72;;;19.73;42.30
30463;BME280;17256;43.618;25.336;2023-05-11T09:45:11;100811.31;;;18.69;42.88
30463;BME280;17256;43.618;25.336;2023-05-11T09:47:49;101182.22;;;21.27;41.70
30463;BME280;17256;43.618;25.336;2023-05-11T10:03:06;100934.75;;;19.48;41.05
30463;BME280;17256;43.618;25.336;2023-05-11T10:05:35;101159.91;;;20.94;40.87
30463;BME280;17256;43.618;25.336;2023-05-11T10:08:02;101178.84;;;20.92;41.71
30463;BME280;17256;43.618;25.336;2023-05-11T10:10:31;101081.41;;;20.56;40.52
30463;BME280;17256;43.618;25.336;2023-05-11T10:13:02;100907.34;;;19.28;41.40
30463;BME280;17256;43.618;25.336;2023-05-11T10:16:56;100786.47;;;18.39;41.79
30463;BME280;17256;43.618;25.336;2023-05-11T10:19:25;101064.00;;;20.04;42.02
30463;BME280;17256;43.618;25.336;2023-05-11T10:21:52;100800.31;;;18.51;41.91
30463;BME280;17256;43.618;25.336;2023-05-11T10:24:22;101026.78;;;20.10;41.94
30463;BME280;17256;43.618;25.336;2023-05-11T10:26:49;100916.56;;;19.57;41.97
30463;BME280;17256;43.618;25.336;2023-05-11T10:29:18;101034.03;;;20.11;42.66
30463;BME280;17256;43.618;25.336;2023-05-11T10:31:47;101134.63;;;20.67;42.29
30463;BME280;17256;43.618;25.336;2023-05-11T10:34:18;100803.19;;;18.96;42.16
30463;BME280;17256;43.618;25.336;2023-05-11T10:37:29;100998.22;;;20.37;42.43
30463;BME280;17256;43.618;25.336;2023-05-11T10:39:56;100935.25;;;20.07;43.28
30463;BME280;17256;43.618;25.336;2023-05-11T10:42:41;100989.56;;;20.55;41.48
30463;BME280;17256;43.618;25.336;2023-05-11T11:30:14;101120.09;;;21.59;44.23
30463;BME280;17256;43.618;25.336;2023-05-11T11:32:41;101074.88;;;21.23;43.83
30463;BME280;17256;43.618;25.336;2023-05-11T11:38:16;100999.81;;;20.66;44.90
30463;BME280;17256;43.618;25.336;2023-05-11T11:40:44;100935.03;;;20.09;46.12
30463;BME280;17256;43.618;25.336;2023-05-11T11:43:19;101034.81;;;20.74;46.26
30463;BME280;17256;43.618;25.336;2023-05-11T11:45:56;101084.44;;;20.88;45.56
30463;BME280;17256;43.618;25.336;2023-05-11T11:51:37;100932.28;;;19.80;45.69
30463;BME280;17256;43.618;25.336;2023-05-11T11:54:04;101021.75;;;20.41;47.10
30463;BME280;17256;43.618;25.336;2023-05-11T11:56:37;101073.78;;;20.85;46.52
30463;BME280;17256;43.618;25.336;2023-05-11T11:59:04;101010.06;;;20.44;46.02
30463;BME280;17256;43.618;25.336;2023-05-11T12:01:36;100870.66;;;19.77;45.59
30463;BME280;17256;43.618;25.336;2023-05-11T12:06:35;100882.63;;;20.11;45.43
30463;BME280;17256;43.618;25.336;2023-05-11T12:09:02;101071.50;;;21.38;45.10
30463;BME280;17256;43.618;25.336;2023-05-11T12:11:29;100839.47;;;19.80;45.73
30463;BME280;17256;43.618;25.336;2023-05-11T12:13:56;101076.94;;;21.49;45.88
30463;BME280;17256;43.618;25.336;2023-05-11T12:16:24;100904.81;;;20.39;45.22
30463;BME280;17256;43.618;25.336;2023-05-11T12:18:57;100865.59;;;20.29;45.18
30463;BME280;17256;43.618;25.336;2023-05-11T12:21:25;100819.13;;;19.79;44.66
30463;BME280;17256;43.618;25.336;2023-05-11T12:23:57;101049.16;;;21.21;44.45
30463;BME280;17256;43.618;25.336;2023-05-11T12:27:01;101055.00;;;21.36;44.69
30463;BME280;17256;43.618;25.336;2023-05-11T12:35:09;101029.63;;;21.43;45.19
30463;BME280;17256;43.618;25.336;2023-05-11T12:39:15;101044.22;;;21.72;42.60
30463;BME280;17256;43.618;25.336;2023-05-11T12:46:26;101030.47;;;21.43;44.52
30463;BME280;17256;43.618;25.336;2023-05-11T12:49:41;101029.94;;;21.68;44.83
30463;BME280;17256;43.618;25.336;2023-05-11T12:56:47;100643.09;;;19.27;44.24
30463;BME280;17256;43.618;25.336;2023-05-11T13:02:14;101009.66;;;21.56;43.42
30463;BME280;17256;43.618;25.336;2023-05-11T13:05:27;100766.88;;;20.08;42.87
30463;BME280;17256;43.618;25.336;2023-05-11T13:12:21;100827.47;;;20.35;44.02
30463;BME280;17256;43.618;25.336;2023-05-11T13:15:25;101010.47;;;21.30;43.72
30463;BME280;17256;43.618;25.336;2023-05-11T13:22:40;100693.97;;;19.39;43.97
30463;BME280;17256;43.618;25.336;2023-05-11T13:25:19;100734.53;;;19.69;44.84
30463;BME280;17256;43.618;25.336;2023-05-11T13:33:50;100831.13;;;20.57;43.35
30463;BME280;17256;43.618;25.336;2023-05-11T13:36:16;100870.38;;;20.50;43.66
30463;BME280;17256;43.618;25.336;2023-05-11T13:38:44;100928.94;;;20.89;43.71
30463;BME280;17256;43.618;25.336;2023-05-11T13:41:10;100773.88;;;19.72;44.44
30463;BME280;17256;43.618;25.336;2023-05-11T13:43:36;100998.59;;;21.01;44.78
30463;BME280;17256;43.618;25.336;2023-05-11T13:46:02;100799.31;;;20.14;44.60
30463;BME280;17256;43.618;25.336;2023-05-11T13:48:30;100796.00;;;20.17;44.06
30463;BME280;17256;43.618;25.336;2023-05-11T13:50:56;100870.38;;;20.50;44.81
30463;BME280;17256;43.618;25.336;2023-05-11T13:53:21;100994.03;;;21.11;45.53
30463;BME280;17256;43.618;25.336;2023-05-11T13:55:47;100875.13;;;20.50;44.82
30463;BME280;17256;43.618;25.336;2023-05-11T13:58:13;100924.47;;;21.10;44.04
30463;BME280;17256;43.618;25.336;2023-05-11T14:00:39;100806.28;;;20.34;44.51
30463;BME280;17256;43.618;25.336;2023-05-11T14:03:05;100841.84;;;20.43;44.45
30463;BME280;17256;43.618;25.336;2023-05-11T14:05:31;100818.69;;;20.43;44.77
30463;BME280;17256;43.618;25.336;2023-05-11T14:07:58;100886.59;;;20.75;44.56
30463;BME280;17256;43.618;25.336;2023-05-11T14:10:25;100850.91;;;20.55;44.44
30463;BME280;17256;43.618;25.336;2023-05-11T14:12:52;100697.59;;;19.23;44.84
30463;BME280;17256;43.618;25.336;2023-05-11T14:15:18;100699.78;;;19.38;44.76
30463;BME280;17256;43.618;25.336;2023-05-11T14:17:43;100878.50;;;20.52;44.61
30463;BME280;17256;43.618;25.336;2023-05-11T14:20:10;100888.88;;;20.78;45.42
30463;BME280;17256;43.618;25.336;2023-05-11T14:22:36;100826.94;;;20.16;44.85
30463;BME280;17256;43.618;25.336;2023-05-11T14:25:04;100755.81;;;19.58;44.52
30463;BME280;17256;43.618;25.336;2023-05-11T14:27:29;100563.28;;;18.60;44.83
30463;BME280;17256;43.618;25.336;2023-05-11T14:29:55;100822.19;;;20.16;45.39
30463;BME280;17256;43.618;25.336;2023-05-11T14:32:23;100828.03;;;20.15;45.73
30463;BME280;17256;43.618;25.336;2023-05-11T14:34:48;100815.31;;;20.41;45.05
30463;BME280;17256;43.618;25.336;2023-05-11T14:37:14;100806.63;;;20.20;44.80
30463;BME280;17256;43.618;25.336;2023-05-11T14:39:40;100919.19;;;20.70;43.82
30463;BME280;17256;43.618;25.336;2023-05-11T14:42:06;100810.94;;;19.89;44.27
30463;BME280;17256;43.618;25.336;2023-05-11T14:44:31;100775.56;;;19.90;44.00
30463;BME280;17256;43.618;25.336;2023-05-11T14:46:57;100879.38;;;20.36;44.18
30463;BME280;17256;43.618;25.336;2023-05-11T14:49:23;100818.22;;;19.74;43.53
30463;BME280;17256;43.618;25.336;2023-05-11T14:51:49;100899.47;;;20.38;44.32
30463;BME280;17256;43.618;25.336;2023-05-11T14:54:16;100888.03;;;20.17;44.38
30463;BME280;17256;43.618;25.336;2023-05-11T14:56:42;100769.13;;;19.05;44.76
30463;BME280;17256;43.618;25.336;2023-05-11T14:59:16;100889.81;;;19.73;45.47
30463;BME280;17256;43.618;25.336;2023-05-11T15:01:43;100979.44;;;20.49;45.41
30463;BME280;17256;43.618;25.336;2023-05-11T15:04:09;100851.25;;;19.65;45.09
30463;BME280;17256;43.618;25.336;2023-05-11T15:06:34;100909.22;;;20.02;45.95
30463;BME280;17256;43.618;25.336;2023-05-11T15:09:21;100702.81;;;18.69;45.36
30463;BME280;17256;43.618;25.336;2023-05-11T15:11:48;100733.97;;;18.99;46.19
30463;BME280;17256;43.618;25.336;2023-05-11T15:14:13;100667.34;;;18.19;47.13
30463;BME280;17256;43.618;25.336;2023-05-11T15:16:39;100764.00;;;18.69;47.29
30463;BME280;17256;43.618;25.336;2023-05-11T15:19:05;100709.13;;;18.36;47.64
30463;BME280;17256;43.618;25.336;2023-05-11T15:21:32;100857.72;;;19.09;47.93
30463;BME280;17256;43.618;25.336;2023-05-11T15:23:58;100756.72;;;18.39;48.23
30463;BME280;17256;43.618;25.336;2023-05-11T15:26:25;100830.63;;;18.75;48.82
30463;BME280;17256;43.618;25.336;2023-05-11T15:32:34;100708.81;;;17.69;47.93
30463;BME280;17256;43.618;25.336;2023-05-11T15:35:00;100781.81;;;18.04;47.96
30463;BME280;17256;43.618;25.336;2023-05-11T15:37:29;100920.00;;;18.79;47.69
30463;BME280;17256;43.618;25.336;2023-05-11T15:43:11;100982.41;;;18.83;47.52
30463;BME280;17256;43.618;25.336;2023-05-11T15:45:40;100692.50;;;17.26;47.66
30463;BME280;17256;43.618;25.336;2023-05-11T15:53:44;100748.88;;;17.38;48.48
30463;BME280;17256;43.618;25.336;2023-05-11T15:56:11;100884.28;;;18.24;48.37
30463;BME280;17256;43.618;25.336;2023-05-11T15:58:37;100585.25;;;16.31;48.27
30463;BME280;17256;43.618;25.336;2023-05-11T16:01:03;100748.50;;;17.22;48.58
30463;BME280;17256;43.618;25.336;2023-05-11T16:03:36;100745.88;;;17.39;48.71
30463;BME280;17256;43.618;25.336;2023-05-11T16:09:17;100806.25;;;17.67;48.61
30463;BME280;17256;43.618;25.336;2023-05-11T16:13:07;100831.38;;;17.72;49.01
30463;BME280;17256;43.618;25.336;2023-05-11T16:19:59;100898.31;;;17.94;49.50
30463;BME280;17256;43.618;25.336;2023-05-11T16:22:32;100620.44;;;16.19;49.39
30463;BME280;17256;43.618;25.336;2023-05-11T16:25:02;100661.41;;;16.28;49.23
30463;BME280;17256;43.618;25.336;2023-05-11T16:27:49;100644.78;;;16.28;49.29
30463;BME280;17256;43.618;25.336;2023-05-11T16:30:26;100746.81;;;16.80;49.46
30463;BME280;17256;43.618;25.336;2023-05-11T16:33:01;100969.31;;;17.78;49.87
30463;BME280;17256;43.618;25.336;2023-05-11T16:35:26;100714.44;;;16.32;49.95
30463;BME280;17256;43.618;25.336;2023-05-11T16:37:52;100767.16;;;16.44;50.40
30463;BME280;17256;43.618;25.336;2023-05-11T16:40:22;100673.19;;;15.94;50.51
30463;BME280;17256;43.618;25.336;2023-05-11T16:42:48;100822.47;;;16.39;51.10
30463;BME280;17256;43.618;25.336;2023-05-11T16:45:21;100660.19;;;15.39;51.35
30463;BME280;17256;43.618;25.336;2023-05-11T16:48:05;100722.81;;;15.77;51.25
30463;BME280;17256;43.618;25.336;2023-05-11T16:50:31;100695.78;;;15.54;51.63
30463;BME280;17256;43.618;25.336;2023-05-11T16:53:03;100890.78;;;16.70;51.79
30463;BME280;17256;43.618;25.336;2023-05-11T16:55:34;100854.47;;;16.35;51.95
30463;BME280;17256;43.618;25.336;2023-05-11T16:58:00;100961.16;;;17.05;52.00
30463;BME280;17256;43.618;25.336;2023-05-11T17:09:19;100779.41;;;15.38;53.00
30463;BME280;17256;43.618;25.336;2023-05-11T17:11:53;100742.06;;;14.97;53.08
30463;BME280;17256;43.618;25.336;2023-05-11T17:14:23;100696.59;;;14.62;53.00
30463;BME280;17256;43.618;25.336;2023-05-11T17:16:53;100668.91;;;14.37;53.30
30463;BME280;17256;43.618;25.336;2023-05-11T17:19:20;100887.44;;;15.50;54.01
30463;BME280;17256;43.618;25.336;2023-05-11T17:21:46;100920.16;;;15.66;54.01
30463;BME280;17256;43.618;25.336;2023-05-11T17:24:12;100807.44;;;14.92;54.53
30463;BME280;17256;43.618;25.336;2023-05-11T17:26:39;100992.19;;;15.91;54.71
30463;BME280;17256;43.618;25.336;2023-05-11T17:29:05;100942.63;;;15.45;54.88
30463;BME280;17256;43.618;25.336;2023-05-11T17:31:30;100924.38;;;15.37;55.37
30463;BME280;17256;43.618;25.336;2023-05-11T17:33:56;100882.69;;;15.00;55.81
30463;BME280;17256;43.618;25.336;2023-05-11T17:36:22;100938.13;;;15.19;55.92
30463;BME280;17256;43.618;25.336;2023-05-11T17:38:48;100982.63;;;15.49;56.42
30463;BME280;17256;43.618;25.336;2023-05-11T17:41:15;101071.22;;;15.93;56.44
30463;BME280;17256;43.618;25.336;2023-05-11T17:43:41;100930.81;;;14.93;56.44
30463;BME280;17256;43.618;25.336;2023-05-11T17:46:06;100797.84;;;13.98;56.41
30463;BME280;17256;43.618;25.336;2023-05-11T17:48:32;101070.75;;;15.65;56.78
30463;BME280;17256;43.618;25.336;2023-05-11T17:50:58;101085.22;;;15.60;56.80
30463;BME280;17256;43.618;25.336;2023-05-11T17:53:26;100884.41;;;14.37;56.68
30463;BME280;17256;43.618;25.336;2023-05-11T17:55:51;100837.56;;;14.04;56.75
30463;BME280;17256;43.618;25.336;2023-05-11T17:58:17;100884.25;;;14.19;57.01
30463;BME280;17256;43.618;25.336;2023-05-11T18:00:47;100935.41;;;14.54;57.15
30463;BME280;17256;43.618;25.336;2023-05-11T18:03:13;100835.25;;;13.81;57.67
30463;BME280;17256;43.618;25.336;2023-05-11T18:05:39;100865.63;;;13.94;57.64
30463;BME280;17256;43.618;25.336;2023-05-11T18:08:08;100931.22;;;14.19;57.52
30463;BME280;17256;43.618;25.336;2023-05-11T18:10:35;100763.59;;;13.28;57.81
30463;BME280;17256;43.618;25.336;2023-05-11T18:13:07;100621.91;;;12.23;57.93
30463;BME280;17256;43.618;25.336;2023-05-11T18:16:10;101104.34;;;15.04;58.27
30463;BME280;17256;43.618;25.336;2023-05-11T18:19:32;100661.53;;;12.36;58.44
30463;BME280;17256;43.618;25.336;2023-05-11T18:22:16;100975.41;;;14.12;59.14
30463;BME280;17256;43.618;25.336;2023-05-11T18:25:23;101116.94;;;14.87;59.47
30463;BME280;17256;43.618;25.336;2023-05-11T18:28:16;100845.19;;;13.09;59.41
30463;BME280;17256;43.618;25.336;2023-05-11T18:30:42;100741.22;;;12.44;59.69
30463;BME280;17256;43.618;25.336;2023-05-11T18:47:10;100896.53;;;13.04;61.84
30463;BME280;17256;43.618;25.336;2023-05-11T18:49:36;101102.03;;;14.08;62.58
30463;BME280;17256;43.618;25.336;2023-05-11T18:52:06;100744.84;;;11.90;62.51
30463;BME280;17256;43.618;25.336;2023-05-11T18:54:35;100838.84;;;12.35;62.75
30463;BME280;17256;43.618;25.336;2023-05-11T18:57:01;100914.28;;;12.88;62.84
30463;BME280;17256;43.618;25.336;2023-05-11T18:59:32;100715.16;;;11.44;62.88
30463;BME280;17256;43.618;25.336;2023-05-11T19:01:59;100809.25;;;12.02;63.42
30463;BME280;17256;43.618;25.336;2023-05-11T19:27:02;100807.06;;;11.35;66.07
30463;BME280;17256;43.618;25.336;2023-05-11T19:31:04;100796.22;;;11.27;66.68
30463;BME280;17256;43.618;25.336;2023-05-11T19:38:10;101053.31;;;12.72;67.53
30463;BME280;17256;43.618;25.336;2023-05-11T19:48:06;100835.63;;;11.13;69.00
30463;BME280;17256;43.618;25.336;2023-05-11T19:51:17;100631.50;;;9.99;69.59
30463;BME280;17256;43.618;25.336;2023-05-11T19:54:49;101153.84;;;13.11;70.38
30463;BME280;17256;43.618;25.336;2023-05-11T19:58:20;100703.91;;;10.40;70.73
30463;BME280;17256;43.618;25.336;2023-05-11T20:36:52;100917.25;;;10.91;76.26
30463;BME280;17256;43.618;25.336;2023-05-11T20:39:21;100959.47;;;11.04;76.77
30463;BME280;17256;43.618;25.336;2023-05-11T20:41:47;100873.00;;;10.50;76.44
30463;BME280;17256;43.618;25.336;2023-05-11T20:44:16;100827.50;;;10.26;77.09
30463;BME280;17256;43.618;25.336;2023-05-11T20:46:42;100987.97;;;11.18;76.52
30463;BME280;17256;43.618;25.336;2023-05-11T20:49:08;101049.63;;;11.45;77.27
30463;BME280;17256;43.618;25.336;2023-05-11T20:51:41;100769.91;;;9.81;77.26
30463;BME280;17256;43.618;25.336;2023-05-11T20:54:07;100822.19;;;10.09;77.51
30463;BME280;17256;43.618;25.336;2023-05-11T20:56:33;100826.63;;;10.10;78.48
30463;BME280;17256;43.618;25.336;2023-05-11T20:58:59;100905.50;;;10.46;79.05
30463;BME280;17256;43.618;25.336;2023-05-11T21:32:44;101011.34;;;10.63;86.01
30463;BME280;17256;43.618;25.336;2023-05-11T21:35:10;100986.53;;;10.27;86.21
30463;BME280;17256;43.618;25.336;2023-05-11T21:37:36;100970.84;;;10.13;87.17
30463;BME280;17256;43.618;25.336;2023-05-11T21:40:02;101002.72;;;10.37;87.81
30463;BME280;17256;43.618;25.336;2023-05-11T21:42:28;101094.13;;;10.90;88.21
30463;BME280;17256;43.618;25.336;2023-05-11T21:45:00;100917.00;;;9.82;89.01
30463;BME280;17256;43.618;25.336;2023-05-11T21:47:26;100960.81;;;10.05;88.72
30463;BME280;17256;43.618;25.336;2023-05-11T21:49:51;100906.34;;;9.65;89.49
30463;BME280;17256;43.618;25.336;2023-05-11T21:52:17;100874.84;;;9.46;89.59
30463;BME280;17256;43.618;25.336;2023-05-11T21:54:43;100921.81;;;9.80;90.25
30463;BME280;17256;43.618;25.336;2023-05-11T21:57:08;100867.75;;;9.51;90.26
30463;BME280;17256;43.618;25.336;2023-05-11T21:59:34;100969.81;;;10.14;90.50
30463;BME280;17256;43.618;25.336;2023-05-11T22:02:01;100922.47;;;9.82;90.83
30463;BME280;17256;43.618;25.336;2023-05-11T22:04:28;101061.16;;;10.60;90.28
30463;BME280;17256;43.618;25.336;2023-05-11T22:06:58;100959.09;;;9.90;90.31
30463;BME280;17256;43.618;25.336;2023-05-11T22:09:26;101000.44;;;10.26;90.16
30463;BME280;17256;43.618;25.336;2023-05-11T22:11:52;101015.69;;;10.28;90.36
30463;BME280;17256;43.618;25.336;2023-05-11T22:14:17;100902.66;;;9.57;89.97
30463;BME280;17256;43.618;25.336;2023-05-11T22:16:47;100966.19;;;9.84;90.50
30463;BME280;17256;43.618;25.336;2023-05-11T22:19:12;100965.81;;;9.87;90.19
30463;BME280;17256;43.618;25.336;2023-05-11T22:21:38;100701.38;;;8.24;90.21
30463;BME280;17256;43.618;25.336;2023-05-11T22:24:05;100855.63;;;9.08;90.30
30463;BME280;17256;43.618;25.336;2023-05-11T22:26:31;100870.66;;;9.35;90.31
30463;BME280;17256;43.618;25.336;2023-05-11T22:28:58;100903.41;;;9.51;90.08
30463;BME280;17256;43.618;25.336;2023-05-11T22:31:24;100669.09;;;8.20;90.10
30463;BME280;17256;43.618;25.336;2023-05-11T22:33:51;101013.69;;;10.22;90.24
30463;BME280;17256;43.618;25.336;2023-05-11T23:15:30;101161.69;;;10.84;97.56
30463;BME280;17256;43.618;25.336;2023-05-11T23:18:02;101159.50;;;10.79;99.01
30463;BME280;17256;43.618;25.336;2023-05-11T23:20:41;100742.91;;;8.28;98.99
30463;BME280;17256;43.618;25.336;2023-05-11T23:38:00;100984.06;;;9.57;100.00
